Time;durP1;ratioP1;P1;durP2;ratioP2;P2;SDS_P1;SDS_P2;PMS_P1;PMS_P2;Temp;Humidity;BMP_temperature;BMP_pressure;BME280_temperature;BME280_humidity;BME280_pressure;Samples;Min_cycle;Max_cycle;Signal;HPM_P1;HPM_P2
2023/04/07 00:00:54;;;;;;;1.48;1.20;;;22.20;28.10;;;;;;5075958;28;20430;-60
2023/04/07 00:03:22;;;;;;;1.52;1.05;;;22.20;28.10;;;;;;5075157;28;20504;-61
2023/04/07 00:05:49;;;;;;;1.45;1.30;;;22.20;28.10;;;;;;5075405;28;20400;-60
2023/04/07 00:08:16;;;;;;;1.20;1.10;;;22.20;28.10;;;;;;5073704;28;20048;-60
2023/04/07 00:10:44;;;;;;;1.30;1.20;;;22.20;28.10;;;;;;5074964;28;20053;-60
2023/04/07 00:13:11;;;;;;;1.33;1.23;;;22.20;28.20;;;;;;5074842;28;20041;-60
2023/04/07 00:15:38;;;;;;;1.00;1.00;;;22.20;28.10;;;;;;5075391;28;20049;-59
2023/04/07 00:18:05;;;;;;;0.95;0.95;;;22.10;28.10;;;;;;5074674;28;20072;-60
2023/04/07 00:20:33;;;;;;;1.20;0.90;;;22.20;28.20;;;;;;5075143;28;20548;-60
2023/04/07 00:23:00;;;;;;;1.58;1.20;;;22.10;28.20;;;;;;5076011;28;20048;-60
2023/04/07 00:25:27;;;;;;;1.38;1.13;;;22.10;28.20;;;;;;5074851;28;20052;-60
2023/04/07 00:27:55;;;;;;;0.90;0.90;;;22.10;28.20;;;;;;5075492;28;20040;-60
2023/04/07 00:30:22;;;;;;;1.60;1.50;;;22.10;28.20;;;;;;5074963;28;20058;-60
2023/04/07 00:32:50;;;;;;;1.45;1.35;;;22.10;28.20;;;;;;5074531;28;20044;-60
2023/04/07 00:35:17;;;;;;;1.80;1.52;;;22.10;28.40;;;;;;5077194;28;20045;-60
2023/04/07 00:37:44;;;;;;;2.55;1.60;;;22.10;28.20;;;;;;5094443;28;20079;-64
2023/04/07 00:40:12;;;;;;;1.27;1.17;;;22.10;28.20;;;;;;5094635;28;20140;-66
2023/04/07 00:42:39;;;;;;;1.38;1.27;;;22.10;28.20;;;;;;5094240;28;20039;-62
2023/04/07 00:45:07;;;;;;;1.10;1.00;;;22.10;28.20;;;;;;5095033;28;20126;-65
2023/04/07 00:47:35;;;;;;;1.40;1.30;;;22.10;28.20;;;;;;5095533;28;20040;-67
2023/04/07 00:50:06;;;;;;;1.13;1.13;;;22.10;28.30;;;;;;5095487;28;20059;-62
2023/04/07 00:52:33;;;;;;;1.52;1.40;;;22.10;28.30;;;;;;5094402;28;20066;-60
2023/04/07 00:55:00;;;;;;;1.55;1.45;;;22.10;28.30;;;;;;5094885;28;20085;-62
2023/04/07 00:57:27;;;;;;;1.48;1.38;;;22.10;28.30;;;;;;5094800;28;20083;-61
2023/04/07 00:59:55;;;;;;;1.55;1.45;;;22.10;28.30;;;;;;5094219;28;20131;-60
2023/04/07 01:02:32;;;;;;;1.45;1.20;;;22.10;28.30;;;;;;5094324;28;20060;-62
2023/04/07 01:05:17;;;;;;;1.55;1.40;;;22.00;28.30;;;;;;5094391;28;20040;-64
2023/04/07 01:08:14;;;;;;;1.70;1.60;;;22.00;28.30;;;;;;5095016;28;20385;-68
2023/04/07 01:11:02;;;;;;;1.58;1.48;;;22.00;28.30;;;;;;5094526;28;20048;-67
2023/04/07 01:13:48;;;;;;;1.30;1.20;;;22.00;28.30;;;;;;5095242;28;20044;-65
2023/04/07 01:16:22;;;;;;;2.22;1.35;;;22.00;28.30;;;;;;5093705;28;20055;-66
2023/04/07 01:18:53;;;;;;;1.48;1.30;;;22.00;28.50;;;;;;5092614;28;20086;-62
2023/04/07 01:21:23;;;;;;;1.42;1.30;;;22.00;28.30;;;;;;5094330;28;20412;-61
2023/04/07 01:24:02;;;;;;;1.42;1.33;;;22.00;28.30;;;;;;5093394;28;20503;-65
2023/04/07 01:26:32;;;;;;;1.30;1.27;;;22.00;28.30;;;;;;5091997;28;20052;-60
2023/04/07 01:29:36;;;;;;;1.45;1.35;;;22.00;28.30;;;;;;5073756;28;20113;-60
2023/04/07 01:32:07;;;;;;;2.08;1.23;;;22.00;28.30;;;;;;5072893;28;20515;-60
2023/04/07 01:34:37;;;;;;;1.73;1.35;;;22.00;28.30;;;;;;5074257;28;20083;-60
2023/04/07 01:37:06;;;;;;;1.67;1.58;;;22.00;28.30;;;;;;5073013;28;20048;-60
2023/04/07 01:39:34;;;;;;;1.52;1.38;;;22.00;28.30;;;;;;5073949;28;20045;-60
2023/04/07 01:42:05;;;;;;;2.35;1.50;;;22.00;28.30;;;;;;5073757;28;20052;-60
2023/04/07 01:44:32;;;;;;;2.15;1.63;;;22.00;28.30;;;;;;5073968;28;20110;-60
2023/04/07 01:47:01;;;;;;;1.65;1.50;;;22.00;28.30;;;;;;5074183;28;20055;-60
2023/04/07 01:49:31;;;;;;;1.75;1.45;;;22.00;28.30;;;;;;5091432;28;20043;-60
2023/04/07 01:51:59;;;;;;;1.63;1.45;;;22.00;28.30;;;;;;5093261;28;20475;-60
2023/04/07 01:54:27;;;;;;;1.30;1.20;;;22.00;28.30;;;;;;5093188;28;20048;-60
2023/04/07 01:56:55;;;;;;;1.65;1.55;;;22.00;28.30;;;;;;5093513;28;20044;-60
2023/04/07 01:59:22;;;;;;;1.35;1.25;;;22.00;28.30;;;;;;5093617;28;20052;-60
2023/04/07 02:01:49;;;;;;;1.45;1.27;;;22.00;28.30;;;;;;5093119;28;20048;-60
2023/04/07 02:04:28;;;;;;;1.38;1.27;;;22.00;28.30;;;;;;5093390;28;20405;-60
2023/04/07 02:07:00;;;;;;;1.80;1.70;;;22.00;28.40;;;;;;5093042;28;20067;-60
2023/04/07 02:09:30;;;;;;;1.42;1.25;;;22.00;28.40;;;;;;5093205;28;20080;-60
2023/04/07 02:11:59;;;;;;;1.38;1.27;;;22.00;28.40;;;;;;5093328;28;20048;-60
2023/04/07 02:14:27;;;;;;;1.42;1.33;;;22.00;28.40;;;;;;5093758;28;20054;-60
2023/04/07 02:16:56;;;;;;;1.20;1.10;;;22.00;28.40;;;;;;5093312;28;20090;-60
2023/04/07 02:19:24;;;;;;;2.00;1.60;;;21.90;28.40;;;;;;5093482;28;20420;-60
2023/04/07 02:21:51;;;;;;;1.38;1.27;;;21.90;28.40;;;;;;5093899;28;20043;-60
2023/04/07 02:24:20;;;;;;;1.67;1.17;;;21.90;28.40;;;;;;5093616;28;20044;-60
2023/04/07 02:26:48;;;;;;;1.02;1.00;;;22.00;28.40;;;;;;5093649;28;20051;-60
2023/04/07 02:29:15;;;;;;;1.83;1.40;;;21.90;28.40;;;;;;5093516;28;20044;-60
2023/04/07 02:31:42;;;;;;;1.83;1.30;;;21.90;28.40;;;;;;5093806;28;20482;-60
2023/04/07 02:34:09;;;;;;;1.23;1.05;;;21.90;28.40;;;;;;5092337;28;20828;-60
2023/04/07 02:36:37;;;;;;;1.27;1.17;;;21.90;28.40;;;;;;5093363;28;20075;-60
2023/04/07 02:39:05;;;;;;;1.38;1.20;;;21.90;28.40;;;;;;5093734;28;20097;-60
2023/04/07 02:41:32;;;;;;;1.70;1.50;;;21.90;28.40;;;;;;5092272;28;20055;-60
2023/04/07 02:43:59;;;;;;;1.45;1.15;;;21.90;28.40;;;;;;5093617;28;20048;-60
2023/04/07 02:46:26;;;;;;;1.58;1.45;;;21.90;28.50;;;;;;5093693;28;20055;-60
2023/04/07 02:48:53;;;;;;;1.35;0.93;;;21.90;28.50;;;;;;5093532;28;20044;-60
2023/04/07 02:51:21;;;;;;;1.08;1.05;;;21.90;28.50;;;;;;5093049;28;20416;-60
2023/04/07 02:53:48;;;;;;;1.38;1.27;;;21.90;28.50;;;;;;5092915;28;20404;-62
2023/04/07 02:56:15;;;;;;;2.40;1.65;;;21.90;28.50;;;;;;5093567;28;20051;-60
2023/04/07 02:58:43;;;;;;;1.30;1.20;;;21.90;28.50;;;;;;5093007;28;20051;-60
2023/04/07 03:01:10;;;;;;;1.55;1.23;;;21.90;28.50;;;;;;5091765;28;20047;-60
2023/04/07 03:03:38;;;;;;;1.95;1.50;;;21.90;28.50;;;;;;5093132;28;20508;-60
2023/04/07 03:06:05;;;;;;;1.33;0.93;;;21.90;28.50;;;;;;5093131;28;20093;-60
2023/04/07 03:08:33;;;;;;;1.98;1.50;;;21.90;28.50;;;;;;5092938;28;20127;-60
2023/04/07 03:11:00;;;;;;;1.40;1.30;;;21.90;28.50;;;;;;5092513;28;20056;-60
2023/04/07 03:13:28;;;;;;;1.08;1.00;;;21.90;28.50;;;;;;5092282;28;20044;-60
2023/04/07 03:15:57;;;;;;;1.30;1.20;;;21.90;28.50;;;;;;5092942;28;20105;-61
2023/04/07 03:18:24;;;;;;;1.48;1.15;;;21.90;28.50;;;;;;5092769;28;20054;-60
2023/04/07 03:20:51;;;;;;;1.75;1.25;;;21.80;28.50;;;;;;5092561;28;20079;-60
2023/04/07 03:23:18;;;;;;;1.17;1.08;;;21.90;28.60;;;;;;5092943;28;20127;-60
2023/04/07 03:25:46;;;;;;;1.10;1.10;;;21.80;28.50;;;;;;5092966;28;20584;-60
2023/04/07 03:28:15;;;;;;;1.63;1.20;;;21.80;28.50;;;;;;5093086;28;20040;-60
2023/04/07 03:30:42;;;;;;;2.25;1.35;;;21.80;28.50;;;;;;5092281;28;20511;-60
2023/04/07 03:33:10;;;;;;;1.30;1.20;;;21.90;28.60;;;;;;5093061;28;20131;-60
2023/04/07 03:35:37;;;;;;;2.20;1.73;;;21.90;28.60;;;;;;5092903;28;20048;-60
2023/04/07 03:38:04;;;;;;;1.38;1.15;;;21.90;28.60;;;;;;5092895;28;20188;-60
2023/04/07 03:40:32;;;;;;;1.42;1.17;;;21.90;28.60;;;;;;5093178;28;20052;-60
2023/04/07 03:42:59;;;;;;;1.30;1.20;;;21.90;28.60;;;;;;5072909;28;20052;-61
2023/04/07 03:45:26;;;;;;;1.48;1.00;;;21.90;28.60;;;;;;5072896;28;20374;-60
2023/04/07 03:47:53;;;;;;;1.33;1.23;;;21.90;28.60;;;;;;5071399;28;20131;-60
2023/04/07 03:50:20;;;;;;;2.05;1.38;;;21.90;28.60;;;;;;5071478;28;20109;-60
2023/04/07 03:52:48;;;;;;;1.40;1.30;;;21.90;28.60;;;;;;5072387;28;20507;-60
2023/04/07 03:55:15;;;;;;;1.05;1.05;;;21.90;28.60;;;;;;5071608;28;20048;-60
2023/04/07 03:57:42;;;;;;;1.27;1.15;;;21.90;28.60;;;;;;5072213;28;20044;-60
2023/04/07 04:00:10;;;;;;;1.10;1.00;;;21.90;28.60;;;;;;5072292;28;20048;-60
2023/04/07 04:02:37;;;;;;;1.45;1.35;;;21.90;28.60;;;;;;5072657;28;20099;-60
2023/04/07 04:05:04;;;;;;;1.60;1.35;;;21.90;28.60;;;;;;5071165;28;20111;-61
2023/04/07 04:07:32;;;;;;;1.10;1.00;;;21.90;28.60;;;;;;5072734;28;20045;-60
2023/04/07 04:09:59;;;;;;;1.30;1.20;;;21.90;28.60;;;;;;5070419;28;20048;-60
2023/04/07 04:12:27;;;;;;;1.60;1.25;;;21.80;28.60;;;;;;5073918;28;20094;-60
2023/04/07 04:14:54;;;;;;;1.73;1.20;;;21.80;28.60;;;;;;5075868;28;20576;-59
2023/04/07 04:17:22;;;;;;;1.55;1.20;;;21.80;28.60;;;;;;5074327;28;20048;-59
2023/04/07 04:19:50;;;;;;;1.27;1.20;;;21.80;28.60;;;;;;5075648;28;20044;-59
2023/04/07 04:22:17;;;;;;;1.42;1.30;;;21.80;28.60;;;;;;5075971;28;20048;-59
2023/04/07 04:24:44;;;;;;;1.80;1.65;;;21.80;28.60;;;;;;5075661;28;20087;-59
2023/04/07 04:27:11;;;;;;;1.63;1.52;;;21.90;28.70;;;;;;5075653;28;20045;-60
2023/04/07 04:29:39;;;;;;;1.67;1.13;;;21.90;28.60;;;;;;5075893;28;20102;-59
2023/04/07 04:32:06;;;;;;;1.30;1.20;;;21.80;28.60;;;;;;5073701;28;20055;-60
2023/04/07 04:34:33;;;;;;;1.60;1.50;;;21.80;28.60;;;;;;5074729;28;20370;-59
2023/04/07 04:37:00;;;;;;;2.22;1.90;;;21.80;28.50;;;;;;5074683;28;20087;-59
2023/04/07 04:39:27;;;;;;;1.90;1.65;;;21.80;28.40;;;;;;5075241;28;20041;-59
2023/04/07 04:41:56;;;;;;;1.88;1.73;;;21.80;28.30;;;;;;5074492;28;20419;-59
2023/04/07 04:44:23;;;;;;;2.22;1.92;;;21.80;28.30;;;;;;5074732;28;20064;-59
2023/04/07 04:46:51;;;;;;;2.50;2.30;;;21.80;28.20;;;;;;5073968;28;20053;-59
2023/04/07 04:49:18;;;;;;;2.45;2.05;;;21.80;28.20;;;;;;5074906;28;20049;-59
2023/04/07 04:51:46;;;;;;;2.40;1.92;;;21.80;28.20;;;;;;5074655;28;20051;-59
2023/04/07 04:54:15;;;;;;;2.35;2.08;;;21.80;28.20;;;;;;5075010;28;20401;-59
2023/04/07 04:56:42;;;;;;;2.15;2.00;;;21.70;28.20;;;;;;5074703;28;20055;-59
2023/04/07 04:59:09;;;;;;;2.92;2.22;;;21.70;28.70;;;;;;5074277;28;20044;-60
2023/04/07 05:01:36;;;;;;;2.15;2.03;;;21.70;28.20;;;;;;5074506;28;20060;-59
2023/04/07 05:04:03;;;;;;;3.10;1.90;;;21.70;28.20;;;;;;5073544;28;20048;-59
2023/04/07 05:06:31;;;;;;;2.25;1.98;;;21.70;28.20;;;;;;5074870;28;20048;-59
2023/04/07 05:08:58;;;;;;;2.42;2.20;;;21.70;28.10;;;;;;5074608;28;20140;-59
2023/04/07 05:11:25;;;;;;;2.30;2.10;;;21.70;28.10;;;;;;5074449;28;20044;-59
2023/04/07 05:13:52;;;;;;;2.30;2.10;;;21.70;28.10;;;;;;5074067;28;20048;-59
2023/04/07 05:16:20;;;;;;;2.42;2.20;;;21.70;28.10;;;;;;5074759;28;20056;-59
2023/04/07 05:18:47;;;;;;;2.20;2.00;;;21.70;28.10;;;;;;5074348;28;20053;-59
2023/04/07 05:21:15;;;;;;;3.42;2.70;;;21.70;28.10;;;;;;5074402;28;20044;-59
2023/04/07 05:23:42;;;;;;;3.67;2.65;;;21.70;28.00;;;;;;5073981;28;20485;-59
2023/04/07 05:26:09;;;;;;;3.13;2.63;;;21.80;28.00;;;;;;5074258;28;20432;-59
2023/04/07 05:28:36;;;;;;;2.92;2.63;;;21.80;27.90;;;;;;5074180;28;20143;-59
2023/04/07 05:31:04;;;;;;;2.70;2.50;;;21.80;27.90;;;;;;5073240;28;20055;-59
2023/04/07 05:33:33;;;;;;;4.47;2.92;;;21.80;27.90;;;;;;5074004;28;20049;-59
2023/04/07 05:36:00;;;;;;;3.20;2.90;;;21.80;27.90;;;;;;5073510;28;20139;-59
2023/04/07 05:38:28;;;;;;;3.30;2.78;;;21.80;27.90;;;;;;5074215;28;20492;-59
2023/04/07 05:40:55;;;;;;;3.40;2.70;;;21.90;27.90;;;;;;5073640;28;20052;-59
2023/04/07 05:43:22;;;;;;;3.70;2.88;;;21.90;27.90;;;;;;5074213;28;20044;-59
2023/04/07 05:45:49;;;;;;;4.25;3.28;;;21.90;27.80;;;;;;5073652;28;20045;-59
2023/04/07 05:48:16;;;;;;;4.57;3.35;;;21.90;27.80;;;;;;5074026;28;20480;-60
2023/04/07 05:50:43;;;;;;;5.07;3.25;;;22.00;27.70;;;;;;5073017;28;20044;-59
2023/04/07 05:53:10;;;;;;;3.45;2.85;;;22.00;27.70;;;;;;5073252;28;20433;-59
2023/04/07 05:55:41;;;;;;;5.45;3.38;;;22.00;27.70;;;;;;5073483;28;20048;-59
2023/04/07 05:58:08;;;;;;;3.28;2.80;;;22.00;27.60;;;;;;5073301;28;20094;-59
2023/04/07 06:00:35;;;;;;;4.25;3.20;;;22.10;27.70;;;;;;5072919;28;20047;-59
2023/04/07 06:03:03;;;;;;;4.88;3.20;;;22.10;27.60;;;;;;5072921;28;20052;-59
2023/04/07 06:05:30;;;;;;;2.85;2.65;;;22.10;27.60;;;;;;5074179;28;20059;-59
2023/04/07 06:07:57;;;;;;;4.85;3.65;;;22.10;27.50;;;;;;5073846;28;20136;-59
2023/04/07 06:10:25;;;;;;;3.97;3.25;;;22.10;27.90;;;;;;5073722;28;20055;-59
2023/04/07 06:12:52;;;;;;;4.20;3.58;;;22.10;27.50;;;;;;5072307;28;20044;-59
2023/04/07 06:15:19;;;;;;;4.47;3.50;;;22.20;27.50;;;;;;5073659;28;20054;-59
2023/04/07 06:17:46;;;;;;;3.45;3.15;;;22.20;27.50;;;;;;5073347;28;20044;-59
2023/04/07 06:20:14;;;;;;;3.55;3.25;;;22.20;27.40;;;;;;5073191;28;20048;-59
2023/04/07 06:22:41;;;;;;;4.07;3.53;;;22.20;27.40;;;;;;5073356;28;20055;-59
2023/04/07 06:25:08;;;;;;;4.18;2.95;;;22.20;27.40;;;;;;5092077;28;20058;-59
2023/04/07 06:27:36;;;;;;;6.20;3.40;;;22.20;27.30;;;;;;5076984;28;20040;-59
2023/04/07 06:30:03;;;;;;;4.05;3.35;;;22.20;27.30;;;;;;5093265;28;20131;-59
2023/04/07 06:32:32;;;;;;;4.20;3.33;;;22.30;27.30;;;;;;5093438;28;20054;-59
2023/04/07 06:34:59;;;;;;;4.43;3.63;;;22.30;27.30;;;;;;5091960;28;20080;-59
2023/04/07 06:37:26;;;;;;;4.43;3.85;;;22.30;27.20;;;;;;5093279;28;20484;-59
2023/04/07 06:39:53;;;;;;;6.43;4.00;;;22.30;27.20;;;;;;5092767;28;20147;-59
2023/04/07 06:42:21;;;;;;;4.25;3.67;;;22.40;27.20;;;;;;5083427;28;20053;-59
2023/04/07 06:44:48;;;;;;;5.43;3.72;;;22.40;27.10;;;;;;5073011;28;20055;-59
2023/04/07 06:47:15;;;;;;;3.63;3.33;;;22.40;27.10;;;;;;5073028;28;20094;-59
2023/04/07 06:49:42;;;;;;;3.97;3.55;;;22.40;27.00;;;;;;5072916;28;20041;-59
2023/04/07 06:52:10;;;;;;;5.10;3.65;;;22.50;27.00;;;;;;5072369;28;20052;-59
2023/04/07 06:54:37;;;;;;;6.03;4.00;;;22.50;27.00;;;;;;5071806;28;20044;-60
2023/04/07 06:57:10;;;;;;;5.97;4.38;;;22.50;27.00;;;;;;5071766;28;20102;-59
2023/04/07 06:59:38;;;;;;;6.93;4.05;;;22.50;26.90;;;;;;5072401;28;20070;-59
2023/04/07 07:02:06;;;;;;;4.70;3.95;;;22.50;26.90;;;;;;5072766;28;20397;-60
2023/04/07 07:04:34;;;;;;;4.63;3.75;;;22.60;26.90;;;;;;5071558;28;20612;-60
2023/04/07 07:07:02;;;;;;;4.90;4.32;;;22.60;26.80;;;;;;5072547;28;20044;-59
2023/04/07 07:09:29;;;;;;;3.75;3.33;;;22.60;26.80;;;;;;5073237;28;20052;-62
2023/04/07 07:11:56;;;;;;;5.53;4.10;;;22.60;26.80;;;;;;5071878;28;20063;-59
2023/04/07 07:14:23;;;;;;;5.13;3.80;;;22.60;26.80;;;;;;5072571;28;20059;-59
2023/04/07 07:16:50;;;;;;;4.57;3.67;;;22.70;26.80;;;;;;5073808;28;20056;-59
2023/04/07 07:19:18;;;;;;;4.63;4.07;;;22.70;26.70;;;;;;5092119;28;20071;-59
2023/04/07 07:21:45;;;;;;;4.85;3.85;;;22.80;26.70;;;;;;5092309;28;20131;-59
2023/04/07 07:24:12;;;;;;;5.25;3.63;;;22.80;26.70;;;;;;5091955;28;20044;-59
2023/04/07 07:26:40;;;;;;;4.30;3.90;;;22.80;26.60;;;;;;5083930;28;20044;-59
2023/04/07 07:29:10;;;;;;;4.93;4.10;;;22.80;26.60;;;;;;5071902;28;20044;-59
2023/04/07 07:31:38;;;;;;;5.55;4.15;;;22.80;26.60;;;;;;5071970;28;20044;-60
2023/04/07 07:34:05;;;;;;;5.88;4.32;;;22.90;26.60;;;;;;5071517;28;20125;-59
2023/04/07 07:36:32;;;;;;;4.15;3.70;;;22.90;26.50;;;;;;5071681;28;20044;-59
2023/04/07 07:38:59;;;;;;;4.78;3.92;;;23.00;26.60;;;;;;5071677;28;20045;-59
2023/04/07 07:41:26;;;;;;;5.22;4.15;;;23.00;26.50;;;;;;5072228;28;20052;-59
2023/04/07 07:43:54;;;;;;;4.40;3.75;;;23.00;26.50;;;;;;5071150;28;20051;-59
2023/04/07 07:46:24;;;;;;;4.75;4.00;;;23.00;26.50;;;;;;5072037;28;20052;-59
2023/04/07 07:48:52;;;;;;;5.28;4.25;;;23.00;26.40;;;;;;5075759;28;20044;-59
2023/04/07 07:51:19;;;;;;;5.78;4.20;;;23.00;26.50;;;;;;5076009;28;20058;-59
2023/04/07 07:53:46;;;;;;;4.40;3.78;;;23.00;26.40;;;;;;5075720;28;20055;-59
2023/04/07 07:56:14;;;;;;;5.32;4.35;;;23.00;26.40;;;;;;5075836;28;20053;-59
2023/04/07 07:58:41;;;;;;;4.47;4.05;;;23.00;26.40;;;;;;5075735;28;20045;-59
2023/04/07 08:01:08;;;;;;;4.57;3.85;;;23.00;26.40;;;;;;5075302;28;20048;-59
2023/04/07 08:03:35;;;;;;;5.75;4.72;;;23.00;26.30;;;;;;5076447;28;20063;-59
2023/04/07 08:06:03;;;;;;;6.30;4.20;;;23.10;26.40;;;;;;5075202;28;20139;-59
2023/04/07 08:08:31;;;;;;;4.95;4.45;;;23.10;26.30;;;;;;5075522;28;20131;-59
2023/04/07 08:10:58;;;;;;;4.53;3.92;;;23.10;26.30;;;;;;5074988;28;20525;-59
2023/04/07 08:13:25;;;;;;;5.13;4.40;;;23.20;26.30;;;;;;5075378;28;20130;-59
2023/04/07 08:15:52;;;;;;;5.53;4.05;;;23.20;26.30;;;;;;5075235;28;20421;-59
2023/04/07 08:18:19;;;;;;;4.95;4.18;;;23.20;26.20;;;;;;5076132;28;20055;-59
2023/04/07 08:20:47;;;;;;;5.75;4.55;;;23.30;26.20;;;;;;5075690;28;20052;-59
2023/04/07 08:23:15;;;;;;;4.85;3.88;;;23.30;26.10;;;;;;5075565;28;20102;-59
2023/04/07 08:25:42;;;;;;;5.53;4.50;;;23.30;26.10;;;;;;5075655;28;20067;-60
2023/04/07 08:28:09;;;;;;;4.28;3.80;;;23.40;26.10;;;;;;5075908;28;20523;-59
2023/04/07 08:30:36;;;;;;;5.35;4.40;;;23.40;26.10;;;;;;5075203;28;20544;-59
2023/04/07 08:33:05;;;;;;;6.80;4.55;;;23.40;26.00;;;;;;5074982;28;20080;-59
2023/04/07 08:35:32;;;;;;;4.78;4.25;;;23.40;25.90;;;;;;5075303;28;20070;-59
2023/04/07 08:38:01;;;;;;;5.03;4.10;;;23.50;26.00;;;;;;5075272;28;20044;-59
2023/04/07 08:40:29;;;;;;;5.28;4.20;;;23.50;25.80;;;;;;5075368;28;20048;-59
2023/04/07 08:42:58;;;;;;;4.50;3.75;;;23.50;25.80;;;;;;5075722;28;20044;-59
2023/04/07 08:45:25;;;;;;;5.00;4.50;;;23.60;25.80;;;;;;5075556;28;20128;-59
2023/04/07 08:47:57;;;;;;;5.47;4.13;;;23.60;25.80;;;;;;5072966;28;20048;-59
2023/04/07 08:50:27;;;;;;;4.97;4.13;;;23.60;25.70;;;;;;5074679;28;20500;-59
2023/04/07 08:52:56;;;;;;;5.30;4.32;;;23.70;25.80;;;;;;5074230;28;20485;-59
2023/04/07 08:55:24;;;;;;;4.50;3.63;;;23.70;25.70;;;;;;5074207;28;20079;-59
2023/04/07 08:57:52;;;;;;;4.97;4.43;;;23.70;25.70;;;;;;5074684;28;20051;-60
2023/04/07 09:00:19;;;;;;;5.55;4.15;;;23.80;25.50;;;;;;5074125;28;20052;-59
2023/04/07 09:02:48;;;;;;;4.85;4.05;;;23.80;25.50;;;;;;5074569;28;20082;-59
2023/04/07 09:05:16;;;;;;;5.68;3.63;;;23.80;25.50;;;;;;5074538;28;20133;-59
2023/04/07 09:07:43;;;;;;;4.70;3.97;;;23.80;25.40;;;;;;5074057;28;20061;-59
2023/04/07 09:10:10;;;;;;;5.85;3.75;;;23.80;25.40;;;;;;5074019;28;20135;-59
2023/04/07 09:12:38;;;;;;;5.05;4.07;;;23.80;25.30;;;;;;5074244;28;20057;-59
2023/04/07 09:15:07;;;;;;;7.32;4.40;;;23.90;25.40;;;;;;5074072;28;20406;-59
2023/04/07 09:17:35;;;;;;;5.32;3.80;;;23.90;25.30;;;;;;5073090;28;20044;-59
2023/04/07 09:20:03;;;;;;;8.32;5.10;;;23.90;25.30;;;;;;5073585;28;20131;-59
2023/04/07 09:22:42;;;;;;;4.32;3.63;;;23.90;25.30;;;;;;5073998;28;20365;-59
2023/04/07 09:25:28;;;;;;;4.55;3.90;;;23.90;25.30;;;;;;5073984;28;20377;-59
2023/04/07 09:28:02;;;;;;;5.82;4.47;;;24.00;25.20;;;;;;5073939;28;20439;-59
2023/04/07 09:30:31;;;;;;;5.10;4.05;;;24.00;25.10;;;;;;5073392;28;20049;-59
2023/04/07 09:33:00;;;;;;;4.45;4.03;;;24.00;25.10;;;;;;5072644;28;20470;-59
2023/04/07 09:35:28;;;;;;;5.50;3.85;;;24.00;25.10;;;;;;5073355;28;20485;-59
2023/04/07 09:38:07;;;;;;;3.90;3.50;;;24.00;25.00;;;;;;5073746;28;20084;-60
2023/04/07 09:40:36;;;;;;;5.28;3.97;;;24.10;25.10;;;;;;5072930;28;20047;-59
2023/04/07 09:43:05;;;;;;;4.47;3.72;;;24.10;25.10;;;;;;5073251;28;20095;-59
2023/04/07 09:45:33;;;;;;;5.32;3.88;;;24.10;25.10;;;;;;5073651;28;20072;-59
2023/04/07 09:48:20;;;;;;;4.80;3.88;;;24.10;25.00;;;;;;5073538;28;20055;-59
2023/04/07 09:50:48;;;;;;;4.82;3.55;;;24.10;25.00;;;;;;5073409;28;20044;-59
2023/04/07 09:53:15;;;;;;;4.53;4.00;;;24.10;25.10;;;;;;5072977;28;20511;-59
2023/04/07 09:55:43;;;;;;;6.25;4.30;;;24.10;25.10;;;;;;5073718;28;20072;-59
2023/04/07 09:58:15;;;;;;;4.13;3.50;;;24.10;25.10;;;;;;5073223;28;20048;-59
2023/04/07 10:00:43;;;;;;;4.68;3.35;;;24.00;25.10;;;;;;5072758;28;20055;-59
2023/04/07 10:03:11;;;;;;;5.47;3.95;;;24.00;25.20;;;;;;5073588;28;20049;-60
2023/04/07 10:05:38;;;;;;;5.57;4.35;;;24.00;25.20;;;;;;5073264;28;20048;-59
2023/04/07 10:08:05;;;;;;;4.72;4.05;;;24.00;25.10;;;;;;5073212;28;20497;-59
2023/04/07 10:10:35;;;;;;;5.07;4.00;;;24.10;25.20;;;;;;5072017;28;20049;-59
2023/04/07 10:13:05;;;;;;;4.65;3.55;;;24.10;25.10;;;;;;5073086;28;20060;-60
2023/04/07 10:15:32;;;;;;;4.57;3.67;;;24.10;25.10;;;;;;5072644;28;20455;-59
2023/04/07 10:18:01;;;;;;;5.65;4.05;;;24.10;25.10;;;;;;5072555;28;20052;-59
2023/04/07 10:20:29;;;;;;;5.18;3.70;;;24.10;25.00;;;;;;5072587;28;20049;-59
2023/04/07 10:23:01;;;;;;;4.38;3.72;;;24.10;25.40;;;;;;5072859;28;20049;-59
2023/04/07 10:25:28;;;;;;;4.55;4.00;;;24.20;25.50;;;;;;5072257;28;20537;-59
2023/04/07 10:28:02;;;;;;;4.60;3.83;;;24.20;25.00;;;;;;5072480;28;20045;-59
2023/04/07 10:30:32;;;;;;;4.78;3.60;;;24.20;24.90;;;;;;5073364;28;20079;-59
2023/04/07 10:32:59;;;;;;;7.15;4.32;;;24.20;24.90;;;;;;5072793;28;20048;-59
2023/04/07 10:35:28;;;;;;;3.53;3.17;;;24.20;25.00;;;;;;5072514;28;20056;-59
2023/04/07 10:38:15;;;;;;;4.38;3.83;;;24.20;24.90;;;;;;5072205;28;20044;-59
2023/04/07 10:40:43;;;;;;;3.85;3.45;;;24.20;25.00;;;;;;5072641;28;20519;-59
2023/04/07 10:43:10;;;;;;;4.10;3.60;;;24.20;25.00;;;;;;5071824;28;20063;-60
2023/04/07 10:45:53;;;;;;;5.07;4.00;;;24.20;24.90;;;;;;5072234;28;20083;-59
2023/04/07 10:48:21;;;;;;;5.45;4.10;;;24.20;25.00;;;;;;5072682;28;20052;-59
2023/04/07 10:51:14;;;;;;;4.97;3.60;;;24.20;25.00;;;;;;5071725;28;20044;-59
2023/04/07 10:54:15;;;;;;;6.20;4.32;;;24.20;24.90;;;;;;5071640;28;20059;-59
2023/04/07 10:57:08;;;;;;;5.00;3.80;;;24.20;25.00;;;;;;5071905;28;20044;-59
2023/04/07 10:59:38;;;;;;;4.25;3.50;;;24.20;25.00;;;;;;5071921;28;20386;-59
2023/04/07 11:02:29;;;;;;;4.88;3.95;;;24.10;25.00;;;;;;5086926;28;20551;-59
2023/04/07 11:04:56;;;;;;;6.88;3.72;;;24.20;24.90;;;;;;5090866;28;20059;-59
2023/04/07 11:07:43;;;;;;;4.97;3.60;;;24.20;25.00;;;;;;5092733;28;20564;-59
2023/04/07 11:10:11;;;;;;;4.18;3.78;;;24.20;25.00;;;;;;5093367;28;20056;-59
2023/04/07 11:12:39;;;;;;;5.80;3.65;;;24.20;25.00;;;;;;5092164;28;20088;-59
2023/04/07 11:15:17;;;;;;;4.78;3.47;;;24.20;25.00;;;;;;5092163;28;20506;-59
2023/04/07 11:17:45;;;;;;;4.93;3.80;;;24.30;25.00;;;;;;5092140;28;20044;-59
2023/04/07 11:20:12;;;;;;;5.00;4.13;;;24.30;24.90;;;;;;5092726;28;20127;-59
2023/04/07 11:22:39;;;;;;;5.78;3.80;;;24.30;24.90;;;;;;5096540;28;20050;-59
2023/04/07 11:25:20;;;;;;;4.68;3.92;;;24.30;24.80;;;;;;5095820;28;20054;-59
2023/04/07 11:27:48;;;;;;;4.20;3.45;;;24.30;24.70;;;;;;5096670;28;20050;-59
2023/04/07 11:30:17;;;;;;;6.43;3.88;;;24.30;24.60;;;;;;5096580;28;20048;-59
2023/04/07 11:32:48;;;;;;;4.88;3.35;;;24.40;24.70;;;;;;5096032;28;20059;-59
2023/04/07 11:35:15;;;;;;;4.72;3.33;;;24.40;24.70;;;;;;5094766;28;20585;-59
2023/04/07 11:37:42;;;;;;;4.75;3.90;;;24.40;24.70;;;;;;5096188;28;20059;-59
2023/04/07 11:40:10;;;;;;;3.97;3.47;;;24.40;24.60;;;;;;5095894;28;20048;-59
2023/04/07 11:42:38;;;;;;;4.43;4.03;;;24.40;24.60;;;;;;5096411;28;20101;-59
2023/04/07 11:45:16;;;;;;;5.00;3.10;;;24.50;24.60;;;;;;5095888;28;20047;-59
2023/04/07 11:47:43;;;;;;;4.95;3.20;;;24.50;24.70;;;;;;5095673;28;20052;-59
2023/04/07 11:50:10;;;;;;;7.57;4.07;;;24.50;24.70;;;;;;5096373;28;20059;-59
2023/04/07 11:52:41;;;;;;;4.40;3.45;;;24.50;24.70;;;;;;5095233;28;20087;-59
2023/04/07 11:55:21;;;;;;;3.58;2.80;;;24.50;25.10;;;;;;5095206;28;20083;-59
2023/04/07 11:57:50;;;;;;;3.67;3.33;;;24.50;24.70;;;;;;5095394;28;20059;-59
2023/04/07 12:00:18;;;;;;;3.45;2.83;;;24.50;24.70;;;;;;5095047;28;20465;-60
2023/04/07 12:02:45;;;;;;;5.22;3.75;;;24.50;24.70;;;;;;5095812;28;20052;-59
2023/04/07 12:05:13;;;;;;;4.18;3.42;;;24.50;24.60;;;;;;5096386;28;20048;-59
2023/04/07 12:07:52;;;;;;;5.05;3.15;;;24.50;24.60;;;;;;5096679;28;20047;-59
2023/04/07 12:10:21;;;;;;;4.57;4.15;;;24.50;24.60;;;;;;5094917;28;20044;-60
2023/04/07 12:12:52;;;;;;;3.65;3.33;;;24.60;24.60;;;;;;5096562;28;20044;-59
2023/04/07 12:15:19;;;;;;;3.17;2.53;;;24.60;24.60;;;;;;5096115;28;20432;-60
2023/04/07 12:17:48;;;;;;;3.45;3.00;;;24.60;24.60;;;;;;5095943;28;20050;-59
2023/04/07 12:20:16;;;;;;;3.95;3.30;;;24.70;24.60;;;;;;5096129;28;20044;-59
2023/04/07 12:22:43;;;;;;;3.40;3.10;;;24.70;24.50;;;;;;5095491;28;20058;-59
2023/04/07 12:25:10;;;;;;;6.47;3.28;;;24.70;24.50;;;;;;5094597;28;20044;-59
2023/04/07 12:27:37;;;;;;;4.47;3.13;;;24.70;24.40;;;;;;5095543;28;20149;-59
2023/04/07 12:30:11;;;;;;;3.90;2.88;;;24.70;24.50;;;;;;5094547;28;20044;-59
2023/04/07 12:32:39;;;;;;;4.30;3.00;;;24.80;24.50;;;;;;5094239;28;20056;-59
2023/04/07 12:35:06;;;;;;;3.33;3.03;;;24.80;24.50;;;;;;5095193;28;20044;-59
2023/04/07 12:37:33;;;;;;;4.25;3.83;;;24.80;24.50;;;;;;5094532;28;20055;-59
2023/04/07 12:40:00;;;;;;;3.10;2.65;;;24.80;24.50;;;;;;5095140;28;20159;-59
2023/04/07 12:42:27;;;;;;;4.32;3.40;;;24.80;24.50;;;;;;5094689;28;20452;-59
2023/04/07 12:44:55;;;;;;;3.10;2.80;;;24.80;24.50;;;;;;5095130;28;20079;-59
2023/04/07 12:47:22;;;;;;;3.55;2.90;;;24.70;24.50;;;;;;5095057;28;20047;-59
2023/04/07 12:49:50;;;;;;;3.20;2.90;;;24.70;24.50;;;;;;5095005;28;20067;-59
2023/04/07 12:52:17;;;;;;;4.47;3.17;;;24.70;24.60;;;;;;5095030;28;20048;-59
2023/04/07 12:54:44;;;;;;;4.30;3.50;;;24.70;24.60;;;;;;5094047;28;20047;-59
2023/04/07 12:57:12;;;;;;;2.92;2.63;;;24.70;24.70;;;;;;5095246;28;20048;-59